sensor_id;sensor_type;location;lat;lon;timestamp;P1;durP1;ratioP1;P2;durP2;ratioP2
209;SDS011;90;48.810;9.120;2023-04-06T00:00:22;12.32;;;8.63;;
209;SDS011;90;48.810;9.120;2023-04-06T00:02:48;14.05;;;8.50;;
209;SDS011;90;48.810;9.120;2023-04-06T00:05:18;12.93;;;8.25;;
209;SDS011;90;48.810;9.120;2023-04-06T00:07:45;15.30;;;9.05;;
209;SDS011;90;48.810;9.120;2023-04-06T00:10:12;13.73;;;8.75;;
209;SDS011;90;48.810;9.120;2023-04-06T00:12:39;12.02;;;8.90;;
209;SDS011;90;48.810;9.120;2023-04-06T00:15:06;11.98;;;8.50;;
209;SDS011;90;48.810;9.120;2023-04-06T00:17:33;14.95;;;8.40;;
209;SDS011;90;48.810;9.120;2023-04-06T00:20:00;11.63;;;8.15;;
209;SDS011;90;48.810;9.120;2023-04-06T00:22:29;12.45;;;8.75;;
209;SDS011;90;48.810;9.120;2023-04-06T00:24:56;15.90;;;8.50;;
209;SDS011;90;48.810;9.120;2023-04-06T00:27:22;12.77;;;8.30;;
209;SDS011;90;48.810;9.120;2023-04-06T00:29:49;13.52;;;8.50;;
209;SDS011;90;48.810;9.120;2023-04-06T00:32:16;13.32;;;7.93;;
209;SDS011;90;48.810;9.120;2023-04-06T00:34:43;12.32;;;9.27;;
209;SDS011;90;48.810;9.120;2023-04-06T00:37:10;12.82;;;8.50;;
209;SDS011;90;48.810;9.120;2023-04-06T00:39:38;14.65;;;8.95;;
209;SDS011;90;48.810;9.120;2023-04-06T00:42:07;15.00;;;9.35;;
209;SDS011;90;48.810;9.120;2023-04-06T00:44:38;13.85;;;9.25;;
209;SDS011;90;48.810;9.120;2023-04-06T00:47:05;14.65;;;9.55;;
209;SDS011;90;48.810;9.120;2023-04-06T00:49:32;16.77;;;9.23;;
209;SDS011;90;48.810;9.120;2023-04-06T00:51:59;15.57;;;9.00;;
209;SDS011;90;48.810;9.120;2023-04-06T00:54:26;15.80;;;9.15;;
209;SDS011;90;48.810;9.120;2023-04-06T00:56:54;15.68;;;9.20;;
209;SDS011;90;48.810;9.120;2023-04-06T00:59:22;14.60;;;9.35;;
209;SDS011;90;48.810;9.120;2023-04-06T01:01:48;12.38;;;8.90;;
209;SDS011;90;48.810;9.120;2023-04-06T01:04:15;12.73;;;8.57;;
209;SDS011;90;48.810;9.120;2023-04-06T01:06:42;14.23;;;9.18;;
209;SDS011;90;48.810;9.120;2023-04-06T01:09:08;16.60;;;8.90;;
209;SDS011;90;48.810;9.120;2023-04-06T01:11:35;12.80;;;9.48;;
209;SDS011;90;48.810;9.120;2023-04-06T01:14:03;16.75;;;9.38;;
209;SDS011;90;48.810;9.120;2023-04-06T01:16:30;13.77;;;8.82;;
209;SDS011;90;48.810;9.120;2023-04-06T01:18:56;15.65;;;9.85;;
209;SDS011;90;48.810;9.120;2023-04-06T01:21:23;15.85;;;10.05;;
209;SDS011;90;48.810;9.120;2023-04-06T01:23:52;18.73;;;10.30;;
209;SDS011;90;48.810;9.120;2023-04-06T01:26:18;15.32;;;9.55;;
209;SDS011;90;48.810;9.120;2023-04-06T01:28:45;14.80;;;9.55;;
209;SDS011;90;48.810;9.120;2023-04-06T01:31:12;16.98;;;10.00;;
209;SDS011;90;48.810;9.120;2023-04-06T01:33:38;14.32;;;8.95;;
209;SDS011;90;48.810;9.120;2023-04-06T01:36:05;12.82;;;9.00;;
209;SDS011;90;48.810;9.120;2023-04-06T01:38:32;14.45;;;9.25;;
209;SDS011;90;48.810;9.120;2023-04-06T01:41:01;13.90;;;8.98;;
209;SDS011;90;48.810;9.120;2023-04-06T01:43:28;12.85;;;8.80;;
209;SDS011;90;48.810;9.120;2023-04-06T01:45:54;16.80;;;9.07;;
209;SDS011;90;48.810;9.120;2023-04-06T01:48:21;12.05;;;8.77;;
209;SDS011;90;48.810;9.120;2023-04-06T01:50:48;15.07;;;9.02;;
209;SDS011;90;48.810;9.120;2023-04-06T01:53:14;16.02;;;10.13;;
209;SDS011;90;48.810;9.120;2023-04-06T01:55:41;14.35;;;9.32;;
209;SDS011;90;48.810;9.120;2023-04-06T01:58:09;14.80;;;9.50;;
209;SDS011;90;48.810;9.120;2023-04-06T02:00:36;14.73;;;9.93;;
209;SDS011;90;48.810;9.120;2023-04-06T02:03:02;15.07;;;10.25;;
209;SDS011;90;48.810;9.120;2023-04-06T02:05:30;13.63;;;9.43;;
209;SDS011;90;48.810;9.120;2023-04-06T02:07:58;16.65;;;9.90;;
209;SDS011;90;48.810;9.120;2023-04-06T02:10:25;14.70;;;9.63;;
209;SDS011;90;48.810;9.120;2023-04-06T02:12:51;14.13;;;9.13;;
209;SDS011;90;48.810;9.120;2023-04-06T02:15:19;16.38;;;10.43;;
209;SDS011;90;48.810;9.120;2023-04-06T02:17:46;14.93;;;9.23;;
209;SDS011;90;48.810;9.120;2023-04-06T02:20:13;15.55;;;9.52;;
209;SDS011;90;48.810;9.120;2023-04-06T02:22:39;14.32;;;8.75;;
209;SDS011;90;48.810;9.120;2023-04-06T02:25:06;15.40;;;9.90;;
209;SDS011;90;48.810;9.120;2023-04-06T02:27:33;13.10;;;9.13;;
209;SDS011;90;48.810;9.120;2023-04-06T02:30:00;13.30;;;9.90;;
209;SDS011;90;48.810;9.120;2023-04-06T02:32:28;17.67;;;9.98;;
209;SDS011;90;48.810;9.120;2023-04-06T02:34:55;15.77;;;10.23;;
209;SDS011;90;48.810;9.120;2023-04-06T02:37:22;19.52;;;10.48;;
209;SDS011;90;48.810;9.120;2023-04-06T02:39:49;16.15;;;10.32;;
209;SDS011;90;48.810;9.120;2023-04-06T02:42:16;17.98;;;10.20;;
209;SDS011;90;48.810;9.120;2023-04-06T02:44:42;15.45;;;9.77;;
209;SDS011;90;48.810;9.120;2023-04-06T02:47:09;15.90;;;8.98;;
209;SDS011;90;48.810;9.120;2023-04-06T02:49:37;16.27;;;9.77;;
209;SDS011;90;48.810;9.120;2023-04-06T02:52:04;15.38;;;9.95;;
209;SDS011;90;48.810;9.120;2023-04-06T02:54:31;15.13;;;9.50;;
209;SDS011;90;48.810;9.120;2023-04-06T02:56:57;14.93;;;9.48;;
209;SDS011;90;48.810;9.120;2023-04-06T02:59:24;16.95;;;9.95;;
209;SDS011;90;48.810;9.120;2023-04-06T03:01:51;19.33;;;10.63;;
209;SDS011;90;48.810;9.120;2023-04-06T03:04:17;15.13;;;10.20;;
209;SDS011;90;48.810;9.120;2023-04-06T03:06:45;18.23;;;9.55;;
209;SDS011;90;48.810;9.120;2023-04-06T03:09:12;16.63;;;9.85;;
209;SDS011;90;48.810;9.120;2023-04-06T03:11:39;18.73;;;11.68;;
209;SDS011;90;48.810;9.120;2023-04-06T03:14:06;22.80;;;10.10;;
209;SDS011;90;48.810;9.120;2023-04-06T03:16:33;18.20;;;11.10;;
209;SDS011;90;48.810;9.120;2023-04-06T03:18:59;17.77;;;10.25;;
209;SDS011;90;48.810;9.120;2023-04-06T03:21:26;19.90;;;11.00;;
209;SDS011;90;48.810;9.120;2023-04-06T03:23:54;15.25;;;9.70;;
209;SDS011;90;48.810;9.120;2023-04-06T03:26:21;15.13;;;9.90;;
209;SDS011;90;48.810;9.120;2023-04-06T03:28:48;15.35;;;10.55;;
209;SDS011;90;48.810;9.120;2023-04-06T03:31:14;18.50;;;10.30;;
209;SDS011;90;48.810;9.120;2023-04-06T03:33:41;19.73;;;10.55;;
209;SDS011;90;48.810;9.120;2023-04-06T03:36:08;17.02;;;10.30;;
209;SDS011;90;48.810;9.120;2023-04-06T03:38:35;19.15;;;11.52;;
209;SDS011;90;48.810;9.120;2023-04-06T03:41:03;17.75;;;10.50;;
209;SDS011;90;48.810;9.120;2023-04-06T03:43:29;19.42;;;10.75;;
209;SDS011;90;48.810;9.120;2023-04-06T03:45:56;23.48;;;11.70;;
209;SDS011;90;48.810;9.120;2023-04-06T03:48:23;20.15;;;10.95;;
209;SDS011;90;48.810;9.120;2023-04-06T03:50:49;16.80;;;11.38;;
209;SDS011;90;48.810;9.120;2023-04-06T03:53:16;20.30;;;11.43;;
209;SDS011;90;48.810;9.120;2023-04-06T03:55:43;21.15;;;11.15;;
209;SDS011;90;48.810;9.120;2023-04-06T03:58:11;21.27;;;12.75;;
209;SDS011;90;48.810;9.120;2023-04-06T04:00:38;21.02;;;12.98;;
209;SDS011;90;48.810;9.120;2023-04-06T04:03:05;20.27;;;11.93;;
209;SDS011;90;48.810;9.120;2023-04-06T04:05:31;19.00;;;11.27;;
209;SDS011;90;48.810;9.120;2023-04-06T04:07:58;22.98;;;12.15;;
209;SDS011;90;48.810;9.120;2023-04-06T04:10:24;21.83;;;12.35;;
209;SDS011;90;48.810;9.120;2023-04-06T04:12:51;20.92;;;12.63;;
209;SDS011;90;48.810;9.120;2023-04-06T04:15:19;20.83;;;11.93;;
209;SDS011;90;48.810;9.120;2023-04-06T04:17:46;30.52;;;11.30;;
209;SDS011;90;48.810;9.120;2023-04-06T04:20:14;20.38;;;11.65;;
209;SDS011;90;48.810;9.120;2023-04-06T04:22:41;20.45;;;11.70;;
209;SDS011;90;48.810;9.120;2023-04-06T04:25:08;21.67;;;11.32;;
209;SDS011;90;48.810;9.120;2023-04-06T04:27:35;21.48;;;11.05;;
209;SDS011;90;48.810;9.120;2023-04-06T04:30:02;20.77;;;11.95;;
209;SDS011;90;48.810;9.120;2023-04-06T04:32:30;22.10;;;12.80;;
209;SDS011;90;48.810;9.120;2023-04-06T04:34:56;22.52;;;12.98;;
209;SDS011;90;48.810;9.120;2023-04-06T04:37:23;24.17;;;13.15;;
209;SDS011;90;48.810;9.120;2023-04-06T04:39:50;24.15;;;13.68;;
209;SDS011;90;48.810;9.120;2023-04-06T04:42:16;24.42;;;12.95;;
209;SDS011;90;48.810;9.120;2023-04-06T04:44:43;24.08;;;13.45;;
209;SDS011;90;48.810;9.120;2023-04-06T04:47:10;23.50;;;14.20;;
209;SDS011;90;48.810;9.120;2023-04-06T04:49:37;22.55;;;12.63;;
209;SDS011;90;48.810;9.120;2023-04-06T04:52:04;26.92;;;13.40;;
209;SDS011;90;48.810;9.120;2023-04-06T04:54:31;19.58;;;12.60;;
209;SDS011;90;48.810;9.120;2023-04-06T04:56:57;25.83;;;13.35;;
209;SDS011;90;48.810;9.120;2023-04-06T04:59:24;26.38;;;13.80;;
209;SDS011;90;48.810;9.120;2023-04-06T05:01:51;24.05;;;14.35;;
209;SDS011;90;48.810;9.120;2023-04-06T05:04:18;23.48;;;13.38;;
209;SDS011;90;48.810;9.120;2023-04-06T05:06:46;25.08;;;13.68;;
209;SDS011;90;48.810;9.120;2023-04-06T05:09:13;27.92;;;13.80;;
209;SDS011;90;48.810;9.120;2023-04-06T05:11:40;16.25;;;9.75;;
209;SDS011;90;48.810;9.120;2023-04-06T05:14:06;14.55;;;9.10;;
209;SDS011;90;48.810;9.120;2023-04-06T05:16:33;24.13;;;12.27;;
209;SDS011;90;48.810;9.120;2023-04-06T05:19:00;24.50;;;13.20;;
209;SDS011;90;48.810;9.120;2023-04-06T05:21:27;21.48;;;12.38;;
209;SDS011;90;48.810;9.120;2023-04-06T05:23:56;19.63;;;12.30;;
209;SDS011;90;48.810;9.120;2023-04-06T05:26:22;22.95;;;12.68;;
209;SDS011;90;48.810;9.120;2023-04-06T05:28:50;23.60;;;13.10;;
209;SDS011;90;48.810;9.120;2023-04-06T05:31:17;22.83;;;13.68;;
209;SDS011;90;48.810;9.120;2023-04-06T05:33:43;26.25;;;13.60;;
209;SDS011;90;48.810;9.120;2023-04-06T05:36:10;23.58;;;13.32;;
209;SDS011;90;48.810;9.120;2023-04-06T05:38:39;27.45;;;13.90;;
209;SDS011;90;48.810;9.120;2023-04-06T05:41:07;25.58;;;13.57;;
209;SDS011;90;48.810;9.120;2023-04-06T05:43:34;21.25;;;13.27;;
209;SDS011;90;48.810;9.120;2023-04-06T05:46:01;25.02;;;14.50;;
209;SDS011;90;48.810;9.120;2023-04-06T05:48:28;33.63;;;14.70;;
209;SDS011;90;48.810;9.120;2023-04-06T05:50:54;28.35;;;14.80;;
209;SDS011;90;48.810;9.120;2023-04-06T05:53:21;28.80;;;14.30;;
209;SDS011;90;48.810;9.120;2023-04-06T05:55:50;29.73;;;14.52;;
209;SDS011;90;48.810;9.120;2023-04-06T05:58:18;29.15;;;16.08;;
209;SDS011;90;48.810;9.120;2023-04-06T06:00:45;36.40;;;16.33;;
209;SDS011;90;48.810;9.120;2023-04-06T06:03:11;31.55;;;16.30;;
209;SDS011;90;48.810;9.120;2023-04-06T06:05:40;27.58;;;16.02;;
209;SDS011;90;48.810;9.120;2023-04-06T06:08:06;32.42;;;15.50;;
209;SDS011;90;48.810;9.120;2023-04-06T06:10:33;26.42;;;14.38;;
209;SDS011;90;48.810;9.120;2023-04-06T06:13:00;28.95;;;15.00;;
209;SDS011;90;48.810;9.120;2023-04-06T06:15:28;28.92;;;15.98;;
209;SDS011;90;48.810;9.120;2023-04-06T06:17:55;25.20;;;14.73;;
209;SDS011;90;48.810;9.120;2023-04-06T06:20:22;32.53;;;15.77;;
209;SDS011;90;48.810;9.120;2023-04-06T06:22:49;32.60;;;15.60;;
209;SDS011;90;48.810;9.120;2023-04-06T06:25:15;28.25;;;15.85;;
209;SDS011;90;48.810;9.120;2023-04-06T06:27:42;25.60;;;15.88;;
209;SDS011;90;48.810;9.120;2023-04-06T06:30:09;28.20;;;15.77;;
209;SDS011;90;48.810;9.120;2023-04-06T06:32:37;27.67;;;15.82;;
209;SDS011;90;48.810;9.120;2023-04-06T06:35:04;25.75;;;15.07;;
209;SDS011;90;48.810;9.120;2023-04-06T06:37:31;32.05;;;15.80;;
209;SDS011;90;48.810;9.120;2023-04-06T06:39:58;24.55;;;15.50;;
209;SDS011;90;48.810;9.120;2023-04-06T06:42:25;26.73;;;15.68;;
209;SDS011;90;48.810;9.120;2023-04-06T06:44:52;30.65;;;17.00;;
209;SDS011;90;48.810;9.120;2023-04-06T06:47:18;32.95;;;16.05;;
209;SDS011;90;48.810;9.120;2023-04-06T06:49:47;26.30;;;15.70;;
209;SDS011;90;48.810;9.120;2023-04-06T06:52:13;29.15;;;16.85;;
209;SDS011;90;48.810;9.120;2023-04-06T06:54:40;27.55;;;16.67;;
209;SDS011;90;48.810;9.120;2023-04-06T06:57:07;30.38;;;16.55;;
209;SDS011;90;48.810;9.120;2023-04-06T06:59:34;30.45;;;17.23;;
209;SDS011;90;48.810;9.120;2023-04-06T07:02:01;32.83;;;16.55;;
209;SDS011;90;48.810;9.120;2023-04-06T07:04:27;31.38;;;17.42;;
209;SDS011;90;48.810;9.120;2023-04-06T07:06:55;32.53;;;17.25;;
209;SDS011;90;48.810;9.120;2023-04-06T07:09:22;29.10;;;16.27;;
209;SDS011;90;48.810;9.120;2023-04-06T07:11:49;29.15;;;16.90;;
209;SDS011;90;48.810;9.120;2023-04-06T07:14:16;24.85;;;16.15;;
209;SDS011;90;48.810;9.120;2023-04-06T07:16:42;28.42;;;17.58;;
209;SDS011;90;48.810;9.120;2023-04-06T07:19:11;32.05;;;17.90;;
209;SDS011;90;48.810;9.120;2023-04-06T07:21:38;35.13;;;16.52;;
209;SDS011;90;48.810;9.120;2023-04-06T07:24:06;34.65;;;19.05;;
209;SDS011;90;48.810;9.120;2023-04-06T07:26:33;33.72;;;18.50;;
209;SDS011;90;48.810;9.120;2023-04-06T07:29:00;32.50;;;18.30;;
209;SDS011;90;48.810;9.120;2023-04-06T07:31:26;33.75;;;17.27;;
209;SDS011;90;48.810;9.120;2023-04-06T07:33:53;36.92;;;18.17;;
209;SDS011;90;48.810;9.120;2023-04-06T07:36:20;30.13;;;17.92;;
209;SDS011;90;48.810;9.120;2023-04-06T07:38:47;31.63;;;16.27;;
209;SDS011;90;48.810;9.120;2023-04-06T07:41:15;29.58;;;17.95;;
209;SDS011;90;48.810;9.120;2023-04-06T07:43:42;32.80;;;17.40;;
209;SDS011;90;48.810;9.120;2023-04-06T07:46:09;32.67;;;17.30;;
209;SDS011;90;48.810;9.120;2023-04-06T07:48:35;30.00;;;17.70;;
209;SDS011;90;48.810;9.120;2023-04-06T07:51:03;35.75;;;19.05;;
209;SDS011;90;48.810;9.120;2023-04-06T07:53:31;38.95;;;19.23;;
209;SDS011;90;48.810;9.120;2023-04-06T07:55:58;31.70;;;18.00;;
209;SDS011;90;48.810;9.120;2023-04-06T07:58:26;33.58;;;18.23;;
209;SDS011;90;48.810;9.120;2023-04-06T08:00:53;34.35;;;18.55;;
209;SDS011;90;48.810;9.120;2023-04-06T08:03:20;33.67;;;18.88;;
209;SDS011;90;48.810;9.120;2023-04-06T08:05:50;30.58;;;17.77;;
209;SDS011;90;48.810;9.120;2023-04-06T08:08:17;35.25;;;19.52;;
209;SDS011;90;48.810;9.120;2023-04-06T08:10:44;34.47;;;17.13;;
209;SDS011;90;48.810;9.120;2023-04-06T08:13:11;32.53;;;17.45;;
209;SDS011;90;48.810;9.120;2023-04-06T08:15:39;35.75;;;17.10;;
209;SDS011;90;48.810;9.120;2023-04-06T08:18:06;37.03;;;16.70;;
209;SDS011;90;48.810;9.120;2023-04-06T08:20:32;29.50;;;17.73;;
209;SDS011;90;48.810;9.120;2023-04-06T08:22:59;35.37;;;16.50;;
209;SDS011;90;48.810;9.120;2023-04-06T08:25:26;25.60;;;15.50;;
209;SDS011;90;48.810;9.120;2023-04-06T08:27:53;33.43;;;16.00;;
209;SDS011;90;48.810;9.120;2023-04-06T08:30:22;29.00;;;16.63;;
209;SDS011;90;48.810;9.120;2023-04-06T08:32:50;27.33;;;16.60;;
209;SDS011;90;48.810;9.120;2023-04-06T08:35:17;30.27;;;16.17;;
209;SDS011;90;48.810;9.120;2023-04-06T08:37:44;27.07;;;16.93;;
209;SDS011;90;48.810;9.120;2023-04-06T08:40:13;33.07;;;16.27;;
209;SDS011;90;48.810;9.120;2023-04-06T08:42:40;29.97;;;15.80;;
209;SDS011;90;48.810;9.120;2023-04-06T08:45:13;26.03;;;14.83;;
209;SDS011;90;48.810;9.120;2023-04-06T08:47:42;28.42;;;15.65;;
209;SDS011;90;48.810;9.120;2023-04-06T08:50:10;32.93;;;17.90;;
209;SDS011;90;48.810;9.120;2023-04-06T08:52:37;37.70;;;16.53;;
209;SDS011;90;48.810;9.120;2023-04-06T08:55:05;26.10;;;15.53;;
209;SDS011;90;48.810;9.120;2023-04-06T08:57:32;32.37;;;16.30;;
209;SDS011;90;48.810;9.120;2023-04-06T09:00:01;26.10;;;15.00;;
209;SDS011;90;48.810;9.120;2023-04-06T09:02:28;28.40;;;15.43;;
209;SDS011;90;48.810;9.120;2023-04-06T09:04:55;24.93;;;14.20;;
209;SDS011;90;48.810;9.120;2023-04-06T09:07:25;30.10;;;14.30;;
209;SDS011;90;48.810;9.120;2023-04-06T09:09:51;23.43;;;14.00;;
209;SDS011;90;48.810;9.120;2023-04-06T09:12:22;26.00;;;14.00;;
209;SDS011;90;48.810;9.120;2023-04-06T09:14:49;23.30;;;13.30;;
209;SDS011;90;48.810;9.120;2023-04-06T09:17:19;24.40;;;13.50;;
209;SDS011;90;48.810;9.120;2023-04-06T09:19:47;22.23;;;13.93;;
209;SDS011;90;48.810;9.120;2023-04-06T09:22:14;25.70;;;13.40;;
209;SDS011;90;48.810;9.120;2023-04-06T09:24:43;31.67;;;14.90;;
209;SDS011;90;48.810;9.120;2023-04-06T09:27:11;28.40;;;14.30;;
209;SDS011;90;48.810;9.120;2023-04-06T09:29:38;16.90;;;9.20;;
209;SDS011;90;48.810;9.120;2023-04-06T09:32:05;19.00;;;12.70;;
209;SDS011;90;48.810;9.120;2023-04-06T09:34:35;24.87;;;13.80;;
209;SDS011;90;48.810;9.120;2023-04-06T09:37:11;18.43;;;11.27;;
209;SDS011;90;48.810;9.120;2023-04-06T09:39:38;26.77;;;12.50;;
209;SDS011;90;48.810;9.120;2023-04-06T09:42:06;22.37;;;12.77;;
209;SDS011;90;48.810;9.120;2023-04-06T09:44:34;28.03;;;14.13;;
209;SDS011;90;48.810;9.120;2023-04-06T09:47:00;20.63;;;12.63;;
209;SDS011;90;48.810;9.120;2023-04-06T09:49:31;30.30;;;13.57;;
209;SDS011;90;48.810;9.120;2023-04-06T09:52:03;26.70;;;13.20;;
209;SDS011;90;48.810;9.120;2023-04-06T09:54:35;24.23;;;14.27;;
209;SDS011;90;48.810;9.120;2023-04-06T09:57:04;30.40;;;14.50;;
209;SDS011;90;48.810;9.120;2023-04-06T09:59:38;25.90;;;14.27;;
209;SDS011;90;48.810;9.120;2023-04-06T10:02:14;29.40;;;15.10;;
209;SDS011;90;48.810;9.120;2023-04-06T10:04:53;31.50;;;14.63;;
209;SDS011;90;48.810;9.120;2023-04-06T10:07:22;29.00;;;15.33;;
209;SDS011;90;48.810;9.120;2023-04-06T10:09:49;26.48;;;14.38;;
209;SDS011;90;48.810;9.120;2023-04-06T10:12:20;25.23;;;15.00;;
209;SDS011;90;48.810;9.120;2023-04-06T10:14:47;21.60;;;13.23;;
209;SDS011;90;48.810;9.120;2023-04-06T10:17:14;26.50;;;14.70;;
209;SDS011;90;48.810;9.120;2023-04-06T10:19:41;20.90;;;12.57;;
209;SDS011;90;48.810;9.120;2023-04-06T10:22:15;24.20;;;13.30;;
209;SDS011;90;48.810;9.120;2023-04-06T10:24:52;22.67;;;13.60;;
209;SDS011;90;48.810;9.120;2023-04-06T10:27:28;25.20;;;13.70;;
209;SDS011;90;48.810;9.120;2023-04-06T10:30:00;25.43;;;13.00;;
209;SDS011;90;48.810;9.120;2023-04-06T10:32:31;19.93;;;13.30;;
209;SDS011;90;48.810;9.120;2023-04-06T10:35:05;26.37;;;12.70;;
209;SDS011;90;48.810;9.120;2023-04-06T10:37:45;22.30;;;12.73;;
209;SDS011;90;48.810;9.120;2023-04-06T10:40:22;25.73;;;13.67;;
209;SDS011;90;48.810;9.120;2023-04-06T10:42:52;25.80;;;12.80;;
209;SDS011;90;48.810;9.120;2023-04-06T10:45:20;21.27;;;13.13;;
209;SDS011;90;48.810;9.120;2023-04-06T10:47:52;25.77;;;13.77;;
209;SDS011;90;48.810;9.120;2023-04-06T10:50:19;11.10;;;8.53;;
209;SDS011;90;48.810;9.120;2023-04-06T10:52:47;24.30;;;9.57;;
209;SDS011;90;48.810;9.120;2023-04-06T10:55:24;22.63;;;12.40;;
209;SDS011;90;48.810;9.120;2023-04-06T10:57:54;24.07;;;12.67;;
209;SDS011;90;48.810;9.120;2023-04-06T11:00:22;22.43;;;12.50;;
209;SDS011;90;48.810;9.120;2023-04-06T11:02:50;20.27;;;11.87;;
209;SDS011;90;48.810;9.120;2023-04-06T11:05:17;22.30;;;11.63;;
209;SDS011;90;48.810;9.120;2023-04-06T11:07:43;21.33;;;12.00;;
209;SDS011;90;48.810;9.120;2023-04-06T11:10:10;20.83;;;13.03;;
209;SDS011;90;48.810;9.120;2023-04-06T11:12:37;19.33;;;11.97;;
209;SDS011;90;48.810;9.120;2023-04-06T11:15:06;17.50;;;11.57;;
209;SDS011;90;48.810;9.120;2023-04-06T11:17:34;23.07;;;11.77;;
209;SDS011;90;48.810;9.120;2023-04-06T11:20:02;19.10;;;11.55;;
209;SDS011;90;48.810;9.120;2023-04-06T11:22:30;19.40;;;12.50;;
209;SDS011;90;48.810;9.120;2023-04-06T11:25:04;19.07;;;11.60;;
209;SDS011;90;48.810;9.120;2023-04-06T11:27:31;24.33;;;12.10;;
209;SDS011;90;48.810;9.120;2023-04-06T11:29:59;22.00;;;12.70;;
209;SDS011;90;48.810;9.120;2023-04-06T11:32:27;20.30;;;11.00;;
209;SDS011;90;48.810;9.120;2023-04-06T11:34:54;18.00;;;11.47;;
209;SDS011;90;48.810;9.120;2023-04-06T11:37:25;19.97;;;12.27;;
209;SDS011;90;48.810;9.120;2023-04-06T11:39:54;16.80;;;10.83;;
209;SDS011;90;48.810;9.120;2023-04-06T11:42:22;19.20;;;11.50;;
209;SDS011;90;48.810;9.120;2023-04-06T11:44:50;20.13;;;11.70;;
209;SDS011;90;48.810;9.120;2023-04-06T11:47:18;17.17;;;11.00;;
209;SDS011;90;48.810;9.120;2023-04-06T11:49:46;19.40;;;11.97;;
209;SDS011;90;48.810;9.120;2023-04-06T11:52:14;19.40;;;11.83;;
209;SDS011;90;48.810;9.120;2023-04-06T11:54:41;18.33;;;10.33;;
209;SDS011;90;48.810;9.120;2023-04-06T11:57:08;19.37;;;11.20;;
209;SDS011;90;48.810;9.120;2023-04-06T11:59:35;16.70;;;10.00;;
209;SDS011;90;48.810;9.120;2023-04-06T12:02:02;19.00;;;11.80;;
209;SDS011;90;48.810;9.120;2023-04-06T12:04:30;23.40;;;12.00;;
209;SDS011;90;48.810;9.120;2023-04-06T12:06:58;18.83;;;12.03;;
209;SDS011;90;48.810;9.120;2023-04-06T12:09:25;17.33;;;11.10;;
209;SDS011;90;48.810;9.120;2023-04-06T12:11:52;20.27;;;11.10;;
209;SDS011;90;48.810;9.120;2023-04-06T12:14:18;18.17;;;11.57;;
209;SDS011;90;48.810;9.120;2023-04-06T12:16:45;18.13;;;10.90;;
209;SDS011;90;48.810;9.120;2023-04-06T12:19:12;17.13;;;10.60;;
209;SDS011;90;48.810;9.120;2023-04-06T12:21:39;21.30;;;11.40;;
209;SDS011;90;48.810;9.120;2023-04-06T12:24:08;20.63;;;11.20;;
209;SDS011;90;48.810;9.120;2023-04-06T12:26:35;21.60;;;10.77;;
209;SDS011;90;48.810;9.120;2023-04-06T12:29:02;19.97;;;11.00;;
209;SDS011;90;48.810;9.120;2023-04-06T12:31:32;22.87;;;12.07;;
209;SDS011;90;48.810;9.120;2023-04-06T12:34:00;16.90;;;10.40;;
209;SDS011;90;48.810;9.120;2023-04-06T12:36:28;17.10;;;10.20;;
209;SDS011;90;48.810;9.120;2023-04-06T12:38:56;14.80;;;10.03;;
209;SDS011;90;48.810;9.120;2023-04-06T12:41:24;20.67;;;11.47;;
209;SDS011;90;48.810;9.120;2023-04-06T12:43:51;15.43;;;10.10;;
209;SDS011;90;48.810;9.120;2023-04-06T12:46:17;16.02;;;10.38;;
209;SDS011;90;48.810;9.120;2023-04-06T12:48:44;15.60;;;9.73;;
209;SDS011;90;48.810;9.120;2023-04-06T12:51:11;14.77;;;10.27;;
209;SDS011;90;48.810;9.120;2023-04-06T12:53:38;16.47;;;9.87;;
209;SDS011;90;48.810;9.120;2023-04-06T12:56:10;15.57;;;10.60;;
209;SDS011;90;48.810;9.120;2023-04-06T12:58:39;21.90;;;10.87;;
209;SDS011;90;48.810;9.120;2023-04-06T13:01:06;15.73;;;10.50;;
209;SDS011;90;48.810;9.120;2023-04-06T13:03:34;22.23;;;10.90;;
209;SDS011;90;48.810;9.120;2023-04-06T13:06:01;17.10;;;10.40;;
209;SDS011;90;48.810;9.120;2023-04-06T13:08:28;15.87;;;10.90;;
209;SDS011;90;48.810;9.120;2023-04-06T13:10:55;17.07;;;10.73;;
209;SDS011;90;48.810;9.120;2023-04-06T13:13:22;15.97;;;10.37;;
209;SDS011;90;48.810;9.120;2023-04-06T13:15:52;16.07;;;10.67;;
209;SDS011;90;48.810;9.120;2023-04-06T13:18:20;17.03;;;11.63;;
209;SDS011;90;48.810;9.120;2023-04-06T13:20:47;19.50;;;11.27;;
209;SDS011;90;48.810;9.120;2023-04-06T13:23:14;18.10;;;10.70;;
209;SDS011;90;48.810;9.120;2023-04-06T13:25:42;16.23;;;10.37;;
209;SDS011;90;48.810;9.120;2023-04-06T13:28:09;16.63;;;10.43;;
209;SDS011;90;48.810;9.120;2023-04-06T13:30:36;18.37;;;10.67;;
209;SDS011;90;48.810;9.120;2023-04-06T13:33:04;17.50;;;10.80;;
209;SDS011;90;48.810;9.120;2023-04-06T13:35:31;13.07;;;9.10;;
209;SDS011;90;48.810;9.120;2023-04-06T13:37:58;17.53;;;9.47;;
209;SDS011;90;48.810;9.120;2023-04-06T13:40:25;18.13;;;10.73;;
209;SDS011;90;48.810;9.120;2023-04-06T13:42:51;17.43;;;11.00;;
209;SDS011;90;48.810;9.120;2023-04-06T13:45:18;16.87;;;11.20;;
209;SDS011;90;48.810;9.120;2023-04-06T13:47:45;16.20;;;10.63;;
209;SDS011;90;48.810;9.120;2023-04-06T13:50:13;15.40;;;9.97;;
209;SDS011;90;48.810;9.120;2023-04-06T13:52:40;22.27;;;10.30;;
209;SDS011;90;48.810;9.120;2023-04-06T13:55:07;17.03;;;10.40;;
209;SDS011;90;48.810;9.120;2023-04-06T13:57:34;15.37;;;10.13;;
209;SDS011;90;48.810;9.120;2023-04-06T14:00:02;19.05;;;10.63;;
209;SDS011;90;48.810;9.120;2023-04-06T14:02:30;15.97;;;10.13;;
209;SDS011;90;48.810;9.120;2023-04-06T14:04:56;15.67;;;10.47;;
209;SDS011;90;48.810;9.120;2023-04-06T14:07:25;19.80;;;10.27;;
209;SDS011;90;48.810;9.120;2023-04-06T14:09:51;19.00;;;11.47;;
209;SDS011;90;48.810;9.120;2023-04-06T14:12:18;18.10;;;11.37;;
209;SDS011;90;48.810;9.120;2023-04-06T14:14:45;12.63;;;9.43;;
209;SDS011;90;48.810;9.120;2023-04-06T14:17:12;14.30;;;9.83;;
209;SDS011;90;48.810;9.120;2023-04-06T14:19:39;14.87;;;10.10;;
209;SDS011;90;48.810;9.120;2023-04-06T14:22:06;20.67;;;10.53;;
209;SDS011;90;48.810;9.120;2023-04-06T14:24:36;15.70;;;10.30;;
209;SDS011;90;48.810;9.120;2023-04-06T14:27:03;21.83;;;10.23;;
209;SDS011;90;48.810;9.120;2023-04-06T14:29:29;16.70;;;10.07;;
209;SDS011;90;48.810;9.120;2023-04-06T14:31:56;15.07;;;10.30;;
209;SDS011;90;48.810;9.120;2023-04-06T14:34:25;17.77;;;9.80;;
209;SDS011;90;48.810;9.120;2023-04-06T14:36:51;14.03;;;9.97;;
209;SDS011;90;48.810;9.120;2023-04-06T14:39:18;17.00;;;10.30;;
209;SDS011;90;48.810;9.120;2023-04-06T14:41:47;15.40;;;9.70;;
209;SDS011;90;48.810;9.120;2023-04-06T14:44:14;17.70;;;9.70;;
209;SDS011;90;48.810;9.120;2023-04-06T14:46:41;16.30;;;10.60;;
209;SDS011;90;48.810;9.120;2023-04-06T14:49:08;16.80;;;9.50;;
209;SDS011;90;48.810;9.120;2023-04-06T14:51:35;15.93;;;9.70;;
209;SDS011;90;48.810;9.120;2023-04-06T14:54:02;12.87;;;9.57;;
209;SDS011;90;48.810;9.120;2023-04-06T14:56:29;18.87;;;10.77;;
209;SDS011;90;48.810;9.120;2023-04-06T14:58:58;13.17;;;8.63;;
209;SDS011;90;48.810;9.120;2023-04-06T15:01:26;16.03;;;9.83;;
209;SDS011;90;48.810;9.120;2023-04-06T15:03:53;14.57;;;9.37;;
209;SDS011;90;48.810;9.120;2023-04-06T15:06:20;18.90;;;9.70;;
209;SDS011;90;48.810;9.120;2023-04-06T15:08:47;12.63;;;8.50;;
209;SDS011;90;48.810;9.120;2023-04-06T15:11:14;17.20;;;9.97;;
209;SDS011;90;48.810;9.120;2023-04-06T15:13:41;11.13;;;8.05;;
209;SDS011;90;48.810;9.120;2023-04-06T15:16:10;11.03;;;7.80;;
209;SDS011;90;48.810;9.120;2023-04-06T15:18:39;9.67;;;7.80;;
209;SDS011;90;48.810;9.120;2023-04-06T15:21:06;12.87;;;7.90;;
209;SDS011;90;48.810;9.120;2023-04-06T15:23:33;11.60;;;7.93;;
209;SDS011;90;48.810;9.120;2023-04-06T15:26:00;10.33;;;7.77;;
209;SDS011;90;48.810;9.120;2023-04-06T15:28:27;10.00;;;7.43;;
209;SDS011;90;48.810;9.120;2023-04-06T15:30:55;13.30;;;8.10;;
209;SDS011;90;48.810;9.120;2023-04-06T15:33:23;9.77;;;7.30;;
209;SDS011;90;48.810;9.120;2023-04-06T15:35:51;11.70;;;8.13;;